createdAt,value
2023-06-20T00:01:16.483Z,6.50
2023-06-20T00:03:47.103Z,5.90
2023-06-20T00:06:27.988Z,5.50
2023-06-20T00:09:04.588Z,6.03
2023-06-20T00:11:35.872Z,6.37
2023-06-20T00:14:13.960Z,6.10
2023-06-20T00:17:02.875Z,6.13
2023-06-20T00:19:36.424Z,6.40
2023-06-20T00:22:10.080Z,6.63
2023-06-20T00:24:41.498Z,6.20
2023-06-20T00:27:35.794Z,6.30
2023-06-20T00:30:23.263Z,6.47
2023-06-20T00:33:07.491Z,6.23
2023-06-20T00:35:43.707Z,7.27
2023-06-20T00:38:17.363Z,6.77
2023-06-20T00:40:58.992Z,6.60
2023-06-20T00:43:51.470Z,6.27
2023-06-20T00:46:36.460Z,7.30
2023-06-20T00:49:10.554Z,7.37
2023-06-20T00:52:10.902Z,7.90
2023-06-20T00:55:07.163Z,7.50
2023-06-20T00:57:57.813Z,7.87
2023-06-20T01:00:43.705Z,8.03
2023-06-20T01:03:49.998Z,7.87
2023-06-20T01:06:52.672Z,7.67
2023-06-20T01:09:49.890Z,7.83
2023-06-20T01:12:35.668Z,8.00
2023-06-20T01:15:42.524Z,8.07
2023-06-20T01:18:35.025Z,7.67
2023-06-20T01:21:22.558Z,7.83
2023-06-20T01:24:47.607Z,7.93
2023-06-20T01:27:30.875Z,8.23
2023-06-20T01:30:26.550Z,8.47
2023-06-20T01:33:04.112Z,7.67
2023-06-20T01:35:43.683Z,8.03
2023-06-20T01:38:42.405Z,7.93
2023-06-20T01:41:30.001Z,8.37
2023-06-20T01:44:09.392Z,8.83
2023-06-20T01:46:46.490Z,8.87
2023-06-20T01:49:19.785Z,8.43
2023-06-20T01:52:02.418Z,8.60
2023-06-20T01:54:38.048Z,7.90
2023-06-20T01:57:36.255Z,8.07
2023-06-20T02:00:17.840Z,7.70
2023-06-20T02:03:02.484Z,7.27
2023-06-20T02:05:44.314Z,7.90
2023-06-20T02:08:23.492Z,8.27
2023-06-20T02:11:05.426Z,7.87
2023-06-20T02:13:52.849Z,7.43
2023-06-20T02:16:35.601Z,7.43
2023-06-20T02:19:29.897Z,6.97
2023-06-20T02:22:26.562Z,7.47
2023-06-20T02:25:19.769Z,7.07
2023-06-20T02:28:19.982Z,6.53
2023-06-20T02:31:16.463Z,6.33
2023-06-20T02:33:52.345Z,6.23
2023-06-20T02:36:40.694Z,6.30
2023-06-20T02:39:15.300Z,6.30
2023-06-20T02:42:16.364Z,6.17
2023-06-20T02:44:57.026Z,6.23
2023-06-20T02:47:50.207Z,6.40
2023-06-20T02:50:31.354Z,6.23
2023-06-20T02:53:19.381Z,5.73
2023-06-20T02:55:59.826Z,5.40
2023-06-20T02:58:55.894Z,5.67
2023-06-20T03:01:40.845Z,5.80
2023-06-20T03:04:37.344Z,6.03
2023-06-20T03:07:37.250Z,5.87
2023-06-20T03:10:34.542Z,5.70
2023-06-20T03:13:29.807Z,5.10
2023-06-20T03:16:04.883Z,5.30
2023-06-20T03:18:38.593Z,5.83
2023-06-20T03:21:28.663Z,5.70
2023-06-20T03:24:06.318Z,5.90
2023-06-20T03:26:49.403Z,6.10
2023-06-20T03:29:40.368Z,5.70
2023-06-20T03:32:24.810Z,5.93
2023-06-20T03:34:58.371Z,5.73
2023-06-20T03:37:45.951Z,5.40
2023-06-20T03:40:18.663Z,4.83
2023-06-20T03:43:11.036Z,4.97
2023-06-20T03:45:43.692Z,5.77
2023-06-20T03:48:15.267Z,4.93
2023-06-20T03:50:49.824Z,5.63
2023-06-20T03:53:31.944Z,5.10
2023-06-20T03:56:14.258Z,5.00
2023-06-20T03:59:22.932Z,5.43
2023-06-20T04:02:16.066Z,5.23
2023-06-20T04:05:04.076Z,5.20
2023-06-20T04:07:35.268Z,5.63
2023-06-20T04:10:13.726Z,5.70
2023-06-20T04:13:11.612Z,6.20
2023-06-20T04:15:53.084Z,6.00
2023-06-20T04:18:43.865Z,5.90
2023-06-20T04:21:24.449Z,5.50
2023-06-20T04:24:05.308Z,5.47
2023-06-20T04:27:10.446Z,5.90
2023-06-20T04:29:44.024Z,5.40
2023-06-20T04:32:34.125Z,5.60
2023-06-20T04:35:19.508Z,5.50
2023-06-20T04:38:02.755Z,5.07
2023-06-20T04:40:50.563Z,5.60
2023-06-20T04:43:30.558Z,5.57
2023-06-20T04:46:01.819Z,5.83
2023-06-20T04:48:37.353Z,5.60
2023-06-20T04:51:27.096Z,4.93
2023-06-20T04:54:02.070Z,5.60
2023-06-20T04:56:50.620Z,5.33
2023-06-20T04:59:32.899Z,5.50
2023-06-20T05:02:28.141Z,5.77
2023-06-20T05:05:18.534Z,5.57
2023-06-20T05:07:59.315Z,5.00
2023-06-20T05:10:32.117Z,5.37
2023-06-20T05:13:23.133Z,5.33
2023-06-20T05:16:13.437Z,4.97
2023-06-20T05:19:04.327Z,5.33
2023-06-20T05:21:56.400Z,5.83
2023-06-20T05:24:33.881Z,5.53
2023-06-20T05:27:13.913Z,6.37
2023-06-20T05:29:51.490Z,6.10
2023-06-20T05:32:53.545Z,5.90
2023-06-20T05:35:31.977Z,6.07
2023-06-20T05:38:18.152Z,5.93
2023-06-20T05:40:56.260Z,6.20
2023-06-20T05:43:27.751Z,6.33
2023-06-20T05:46:16.278Z,6.07
2023-06-20T05:49:12.222Z,6.43
2023-06-20T05:52:05.087Z,6.30
2023-06-20T05:54:57.777Z,6.60
2023-06-20T05:57:49.343Z,6.00
2023-06-20T06:00:37.939Z,6.23
2023-06-20T06:03:32.867Z,6.00
2023-06-20T06:06:11.317Z,6.80
2023-06-20T06:08:48.571Z,6.80
2023-06-20T06:11:20.437Z,6.93
2023-06-20T06:13:52.799Z,6.80
2023-06-20T06:16:27.848Z,6.47
2023-06-20T06:19:08.772Z,7.03
2023-06-20T06:21:41.510Z,7.73
2023-06-20T06:24:15.955Z,7.37
2023-06-20T06:26:51.177Z,6.83
2023-06-20T06:29:30.816Z,8.00
2023-06-20T06:32:05.677Z,7.70
2023-06-20T06:34:52.375Z,7.20
2023-06-20T06:37:28.552Z,7.47
2023-06-20T06:40:02.898Z,7.10
2023-06-20T06:42:35.525Z,7.90
2023-06-20T06:45:13.525Z,7.97
2023-06-20T06:47:48.326Z,7.67
2023-06-20T06:50:25.979Z,9.03
2023-06-20T06:53:05.818Z,8.27
2023-06-20T06:55:41.583Z,8.00
2023-06-20T06:58:13.680Z,7.80
2023-06-20T07:00:48.612Z,8.57
2023-06-20T07:03:33.464Z,7.87
2023-06-20T07:06:09.479Z,9.03
2023-06-20T07:08:44.510Z,8.40
2023-06-20T07:11:27.011Z,8.43
2023-06-20T07:14:11.123Z,7.73
2023-06-20T07:17:03.263Z,7.90
2023-06-20T07:19:40.976Z,7.60
2023-06-20T07:22:15.414Z,8.17
2023-06-20T07:24:57.321Z,8.67
2023-06-20T07:27:32.896Z,7.40
2023-06-20T07:30:09.907Z,8.20
2023-06-20T07:32:49.245Z,7.93
2023-06-20T07:35:22.495Z,7.80
2023-06-20T07:37:59.022Z,7.43
2023-06-20T07:40:40.514Z,8.23
2023-06-20T07:43:21.245Z,8.10
2023-06-20T07:45:54.581Z,7.90
2023-06-20T07:48:31.770Z,7.40
2023-06-20T07:51:06.549Z,8.20
2023-06-20T07:53:45.546Z,8.20
2023-06-20T07:56:26.714Z,7.70
2023-06-20T07:59:07.714Z,7.67
2023-06-20T08:01:40.297Z,7.83
2023-06-20T08:04:14.222Z,7.90
2023-06-20T08:06:50.423Z,8.47
2023-06-20T08:09:23.236Z,8.07
2023-06-20T08:11:55.488Z,8.23
2023-06-20T08:14:36.191Z,7.27
2023-06-20T08:17:16.609Z,8.23
2023-06-20T08:19:51.275Z,7.97
2023-06-20T08:22:38.904Z,8.07
2023-06-20T08:25:18.449Z,7.93
2023-06-20T08:27:58.806Z,7.97
2023-06-20T08:30:43.280Z,7.93
2023-06-20T08:33:19.090Z,8.27
2023-06-20T08:35:58.383Z,7.70
2023-06-20T08:38:34.056Z,7.50
2023-06-20T08:41:22.360Z,7.03
2023-06-20T08:44:10.104Z,7.43
2023-06-20T08:46:44.954Z,7.10
2023-06-20T08:49:21.615Z,7.97
2023-06-20T08:52:06.194Z,7.80
2023-06-20T08:54:46.206Z,7.57
2023-06-20T08:57:25.480Z,7.50
2023-06-20T09:00:11.071Z,8.03
2023-06-20T09:02:48.205Z,7.37
2023-06-20T09:05:19.687Z,7.13
2023-06-20T09:08:02.783Z,7.80
2023-06-20T09:10:41.907Z,7.40
2023-06-20T09:13:44.757Z,7.27
2023-06-20T09:16:56.854Z,7.20
2023-06-20T09:19:39.721Z,7.20
2023-06-20T09:22:21.427Z,7.20
2023-06-20T09:25:06.429Z,6.97
2023-06-20T09:27:44.709Z,6.97
2023-06-20T09:30:33.770Z,6.63
2023-06-20T09:33:34.561Z,7.00
2023-06-20T09:36:31.765Z,6.70
2023-06-20T09:39:49.469Z,6.57
2023-06-20T09:42:25.295Z,7.00
2023-06-20T09:44:57.044Z,6.53
2023-06-20T09:47:49.965Z,6.50
2023-06-20T09:50:32.572Z,6.83
2023-06-20T09:53:39.612Z,7.10
2023-06-20T09:56:15.737Z,6.83
2023-06-20T09:59:03.745Z,6.77
2023-06-20T10:01:57.102Z,6.53
2023-06-20T10:04:42.437Z,6.43
2023-06-20T10:07:30.274Z,6.10
2023-06-20T10:10:22.543Z,5.60
2023-06-20T10:12:54.756Z,6.33
2023-06-20T10:15:46.806Z,5.60
2023-06-20T10:18:49.213Z,6.67
2023-06-20T10:22:00.242Z,7.20
2023-06-20T10:25:21.753Z,5.80
2023-06-20T10:28:06.282Z,6.30
2023-06-20T10:31:04.436Z,6.00
2023-06-20T10:33:55.691Z,6.10
2023-06-20T10:36:48.172Z,6.00
2023-06-20T10:39:21.482Z,6.70
2023-06-20T10:42:48.548Z,5.50
2023-06-20T10:45:38.429Z,5.40
2023-06-20T10:48:15.089Z,5.70
2023-06-20T10:51:03.336Z,5.80
2023-06-20T10:53:36.276Z,5.40
2023-06-20T10:56:08.512Z,5.57
2023-06-20T10:59:10.871Z,5.23
2023-06-20T11:01:57.904Z,6.07
2023-06-20T11:04:30.276Z,4.97
2023-06-20T11:07:11.246Z,5.53
2023-06-20T11:10:02.379Z,5.43
2023-06-20T11:12:53.708Z,5.00
2023-06-20T11:15:45.054Z,5.43
2023-06-20T11:18:29.472Z,5.70
2023-06-20T11:21:20.697Z,5.77
2023-06-20T11:24:12.699Z,5.10
2023-06-20T11:27:04.640Z,5.20
2023-06-20T11:29:40.793Z,5.17
2023-06-20T11:32:38.701Z,5.50
2023-06-20T11:35:42.182Z,5.40
2023-06-20T11:38:20.615Z,5.33
2023-06-20T11:41:07.819Z,4.97
2023-06-20T11:43:56.190Z,5.07
2023-06-20T11:46:32.186Z,5.07
2023-06-20T11:49:14.813Z,5.07
2023-06-20T11:52:10.441Z,4.87
2023-06-20T11:55:00.432Z,5.00
2023-06-20T11:57:50.154Z,5.20
2023-06-20T12:00:26.512Z,5.23
2023-06-20T12:03:07.552Z,5.40
2023-06-20T12:06:10.287Z,4.40
2023-06-20T12:08:57.631Z,4.97
2023-06-20T12:11:54.294Z,5.03
2023-06-20T12:14:27.573Z,4.73
2023-06-20T12:17:21.969Z,5.37
2023-06-20T12:20:32.191Z,5.70
2023-06-20T12:23:45.263Z,5.30
2023-06-20T12:26:48.673Z,4.97
2023-06-20T12:29:33.656Z,5.10
2023-06-20T12:32:17.462Z,5.03
2023-06-20T12:34:55.852Z,4.83
2023-06-20T12:37:27.521Z,4.55
2023-06-20T12:40:19.117Z,4.35
2023-06-20T12:43:03.962Z,4.85
2023-06-20T12:46:00.713Z,4.63
2023-06-20T12:48:41.647Z,4.45
2023-06-20T12:51:25.408Z,4.70
2023-06-20T12:54:06.803Z,4.28
2023-06-20T12:57:00.618Z,3.58
2023-06-20T12:59:48.142Z,3.25
2023-06-20T13:02:29.743Z,3.03
2023-06-20T13:05:04.013Z,3.10
2023-06-20T13:07:46.461Z,3.22
2023-06-20T13:10:22.549Z,4.07
2023-06-20T13:13:01.259Z,3.70
2023-06-20T13:15:34.340Z,4.00
2023-06-20T13:18:20.543Z,3.55
2023-06-20T13:21:02.414Z,3.90
2023-06-20T13:24:09.836Z,3.55
2023-06-20T13:26:59.531Z,3.80
2023-06-20T13:29:49.412Z,3.42
2023-06-20T13:32:26.288Z,3.75
2023-06-20T13:35:09.512Z,3.58
2023-06-20T13:37:53.887Z,3.45
2023-06-20T13:40:53.379Z,3.67
2023-06-20T13:43:28.374Z,3.67
2023-06-20T13:46:17.735Z,3.88
2023-06-20T13:48:58.608Z,4.20
2023-06-20T13:51:42.178Z,3.97
2023-06-20T13:54:21.598Z,4.20
2023-06-20T13:56:54.967Z,4.03
2023-06-20T13:59:29.404Z,4.38
2023-06-20T14:02:08.204Z,4.05
2023-06-20T14:04:44.708Z,4.13
2023-06-20T14:07:15.800Z,4.18
2023-06-20T14:10:05.049Z,3.72
2023-06-20T14:12:38.743Z,3.90
2023-06-20T14:15:43.080Z,4.10
2023-06-20T14:18:27.260Z,4.30
2023-06-20T14:21:09.655Z,3.70
2023-06-20T14:23:46.404Z,3.95
2023-06-20T14:26:44.236Z,3.80
2023-06-20T14:29:21.505Z,3.75
2023-06-20T14:32:05.529Z,3.60
2023-06-20T14:34:46.617Z,4.18
2023-06-20T14:37:25.202Z,4.20
2023-06-20T14:40:07.659Z,3.83
2023-06-20T14:42:44.635Z,3.95
2023-06-20T14:45:21.410Z,4.07
2023-06-20T14:48:13.734Z,4.13
2023-06-20T14:50:49.426Z,4.30
2023-06-20T14:53:29.503Z,4.40
2023-06-20T14:56:02.966Z,4.32
2023-06-20T14:58:44.367Z,3.88
2023-06-20T15:01:20.592Z,4.22
2023-06-20T15:04:07.778Z,4.28
2023-06-20T15:06:48.430Z,4.72
2023-06-20T15:09:19.995Z,4.15
2023-06-20T15:11:52.143Z,4.00
2023-06-20T15:14:38.751Z,4.22
2023-06-20T15:17:18.909Z,3.92
2023-06-20T15:20:15.332Z,4.07
2023-06-20T15:23:10.398Z,4.43
2023-06-20T15:25:50.976Z,4.10
2023-06-20T15:28:48.607Z,4.20
2023-06-20T15:31:20.757Z,4.28
2023-06-20T15:33:59.665Z,4.72
2023-06-20T15:36:32.276Z,3.85
2023-06-20T15:39:21.869Z,4.07
2023-06-20T15:42:12.049Z,3.97
2023-06-20T15:45:07.806Z,5.00
2023-06-20T15:47:48.924Z,4.00
2023-06-20T15:50:31.989Z,4.25
2023-06-20T15:53:13.870Z,4.38
2023-06-20T15:56:07.749Z,4.68
2023-06-20T15:58:42.093Z,4.60
2023-06-20T16:01:18.461Z,4.72
2023-06-20T16:04:01.269Z,4.70
2023-06-20T16:06:32.217Z,4.25
2023-06-20T16:09:03.193Z,4.47
2023-06-20T16:11:57.726Z,4.35
2023-06-20T16:14:40.311Z,4.35
2023-06-20T16:17:26.870Z,4.90
2023-06-20T16:20:09.326Z,4.90
2023-06-20T16:22:49.559Z,4.55
2023-06-20T16:25:45.612Z,4.50
2023-06-20T16:28:43.036Z,4.53
2023-06-20T16:31:46.667Z,4.72
2023-06-20T16:34:32.010Z,4.53
2023-06-20T16:37:15.323Z,4.85
2023-06-20T16:39:52.739Z,4.75
2023-06-20T16:42:31.012Z,4.65
2023-06-20T16:45:11.170Z,4.70
2023-06-20T16:47:44.484Z,5.10
2023-06-20T16:50:28.217Z,5.10
2023-06-20T16:52:59.506Z,4.90
2023-06-20T16:55:42.249Z,4.93
2023-06-20T16:58:20.148Z,5.00
2023-06-20T17:01:06.959Z,4.95
2023-06-20T17:04:06.424Z,4.97
2023-06-20T17:06:40.742Z,5.47
2023-06-20T17:09:22.529Z,5.47
2023-06-20T17:12:21.478Z,5.35
2023-06-20T17:15:15.594Z,5.03
2023-06-20T17:18:06.815Z,5.10
2023-06-20T17:20:52.235Z,5.03
2023-06-20T17:23:28.557Z,5.53
2023-06-20T17:26:24.501Z,5.17
2023-06-20T17:29:17.028Z,5.90
2023-06-20T17:32:03.681Z,5.20
2023-06-20T17:34:48.814Z,5.57
2023-06-20T17:37:24.949Z,5.60
2023-06-20T17:40:15.282Z,5.47
2023-06-20T17:42:55.741Z,5.47
2023-06-20T17:45:27.963Z,5.93
2023-06-20T17:48:03.565Z,5.30
2023-06-20T17:51:00.304Z,5.47
2023-06-20T17:53:42.733Z,5.67
2023-06-20T17:56:21.676Z,5.87
2023-06-20T17:59:29.562Z,5.50
2023-06-20T18:02:02.070Z,5.60
2023-06-20T18:04:33.412Z,5.67
2023-06-20T18:07:40.322Z,5.70
2023-06-20T18:10:34.120Z,5.97
2023-06-20T18:13:08.829Z,6.30
2023-06-20T18:16:02.466Z,6.10
2023-06-20T18:18:42.664Z,5.83
2023-06-20T18:21:23.378Z,5.77
2023-06-20T18:23:55.573Z,6.70
2023-06-20T18:26:46.490Z,6.40
2023-06-20T18:29:23.916Z,6.77
2023-06-20T18:32:28.559Z,6.17
2023-06-20T18:35:36.923Z,6.27
2023-06-20T18:38:27.178Z,7.17
2023-06-20T18:41:10.968Z,6.83
2023-06-20T18:43:45.600Z,7.23
2023-06-20T18:46:20.483Z,7.03
2023-06-20T18:48:54.093Z,7.27
2023-06-20T18:51:28.686Z,7.20
2023-06-20T18:54:13.198Z,7.20
2023-06-20T18:56:45.629Z,7.50
2023-06-20T18:59:34.359Z,7.07
2023-06-20T19:02:22.019Z,7.97
2023-06-20T19:05:11.832Z,7.90
2023-06-20T19:08:03.183Z,8.00
2023-06-20T19:10:35.496Z,8.07
2023-06-20T19:13:27.551Z,8.20
2023-06-20T19:16:26.864Z,8.00
2023-06-20T19:19:37.915Z,8.10
2023-06-20T19:22:19.059Z,8.53
2023-06-20T19:24:50.262Z,9.30
2023-06-20T19:27:40.716Z,9.70
2023-06-20T19:30:41.284Z,8.43
2023-06-20T19:33:13.808Z,8.37
2023-06-20T19:36:16.080Z,9.23
2023-06-20T19:38:58.728Z,8.93
2023-06-20T19:41:45.758Z,9.87
2023-06-20T19:44:31.288Z,8.77
2023-06-20T19:47:36.674Z,10.33
2023-06-20T19:50:13.286Z,9.63
2023-06-20T19:52:46.814Z,9.70
2023-06-20T19:55:26.385Z,9.83
2023-06-20T19:58:09.634Z,10.40
2023-06-20T20:00:40.991Z,10.67
2023-06-20T20:03:23.534Z,10.10
2023-06-20T20:06:05.465Z,10.40
2023-06-20T20:08:54.837Z,9.27
2023-06-20T20:11:44.608Z,10.73
2023-06-20T20:14:15.484Z,10.30
2023-06-20T20:16:56.539Z,11.17
2023-06-20T20:19:42.932Z,10.63
2023-06-20T20:22:47.912Z,9.47
2023-06-20T20:25:55.552Z,10.50
2023-06-20T20:28:43.749Z,10.23
2023-06-20T20:31:20.733Z,9.67
2023-06-20T20:34:01.558Z,10.47
2023-06-20T20:37:15.894Z,10.37
2023-06-20T20:39:59.437Z,9.87
2023-06-20T20:42:35.391Z,9.70
2023-06-20T20:45:16.006Z,9.73
2023-06-20T20:47:52.844Z,10.10
2023-06-20T20:50:57.017Z,10.03
2023-06-20T20:53:47.682Z,10.07
2023-06-20T20:56:27.307Z,9.67
2023-06-20T20:59:06.417Z,10.40
2023-06-20T21:01:39.075Z,11.83
2023-06-20T21:04:19.524Z,11.23
2023-06-20T21:07:15.663Z,10.00
2023-06-20T21:10:52.825Z,11.07
2023-06-20T21:13:31.858Z,10.00
2023-06-20T21:16:15.439Z,10.37
2023-06-20T21:18:47.861Z,9.60
2023-06-20T21:21:40.577Z,9.37
2023-06-20T21:24:27.868Z,10.03
2023-06-20T21:27:29.768Z,10.40
2023-06-20T21:30:19.613Z,10.10
2023-06-20T21:33:11.644Z,10.03
2023-06-20T21:35:59.148Z,9.87
2023-06-20T21:38:30.740Z,10.87
2023-06-20T21:41:08.770Z,8.93
2023-06-20T21:43:47.711Z,9.50
2023-06-20T21:46:21.857Z,9.40
2023-06-20T21:49:07.048Z,9.43
2023-06-20T21:51:40.722Z,10.30
2023-06-20T21:54:25.588Z,10.17
2023-06-20T21:57:36.921Z,9.30
2023-06-20T22:00:32.887Z,9.50
2023-06-20T22:03:13.767Z,10.00
2023-06-20T22:05:59.589Z,8.70
2023-06-20T22:08:58.369Z,9.20
2023-06-20T22:11:29.253Z,8.57
2023-06-20T22:14:36.605Z,8.50
2023-06-20T22:17:49.123Z,8.60
2023-06-20T22:20:34.041Z,8.90
2023-06-20T22:23:04.979Z,8.50
2023-06-20T22:25:41.513Z,8.73
2023-06-20T22:28:25.535Z,9.30
2023-06-20T22:31:12.164Z,9.00
2023-06-20T22:34:14.326Z,8.97
2023-06-20T22:36:58.402Z,8.57
2023-06-20T22:39:49.438Z,9.47
2023-06-20T22:42:45.114Z,10.27
2023-06-20T22:45:30.115Z,8.83
2023-06-20T22:48:12.245Z,9.53
2023-06-20T22:51:19.275Z,8.73
2023-06-20T22:53:54.056Z,9.70
2023-06-20T22:56:33.874Z,8.53
2023-06-20T22:59:14.102Z,9.90
2023-06-20T23:01:49.772Z,9.57
2023-06-20T23:04:22.752Z,10.70
2023-06-20T23:07:10.503Z,9.63
2023-06-20T23:09:58.395Z,9.30
2023-06-20T23:12:45.716Z,9.47
2023-06-20T23:15:18.150Z,9.70
2023-06-20T23:18:01.343Z,9.17
2023-06-20T23:20:48.275Z,9.73
2023-06-20T23:24:05.400Z,10.70
2023-06-20T23:27:05.275Z,10.00
2023-06-20T23:29:47.723Z,10.63
2023-06-20T23:32:44.533Z,9.43
2023-06-20T23:35:18.222Z,9.10
2023-06-20T23:37:52.349Z,9.20
2023-06-20T23:40:55.509Z,9.13
2023-06-20T23:43:29.847Z,9.63
2023-06-20T23:46:18.200Z,9.80
2023-06-20T23:48:56.852Z,9.43
2023-06-20T23:51:37.264Z,9.50
2023-06-20T23:54:29.430Z,10.03
2023-06-20T23:57:10.592Z,9.50
2023-06-20T23:59:58.615Z,10.47
